sensor_id;sensor_type;location;lat;lon;timestamp;pressure;altitude;pressure_sealevel;temperature;humidity
75045;BME280;63614;56.026;35.960;2022-11-23T00:01:46;98185.97;;;1.74;82.44
75045;BME280;63614;56.026;35.960;2022-11-23T00:04:12;98179.44;;;1.63;82.80
75045;BME280;63614;56.026;35.960;2022-11-23T00:06:39;98187.28;;;1.61;83.27
75045;BME280;63614;56.026;35.960;2022-11-23T00:09:05;98190.16;;;1.67;82.98
75045;BME280;63614;56.026;35.960;2022-11-23T00:11:33;98181.38;;;1.69;83.12
75045;BME280;63614;56.026;35.960;2022-11-23T00:14:00;98189.22;;;1.68;82.94
75045;BME280;63614;56.026;35.960;2022-11-23T00:16:28;98189.84;;;1.78;82.51
75045;BME280;63614;56.026;35.960;2022-11-23T00:18:56;98198.31;;;1.78;82.53
75045;BME280;63614;56.026;35.960;2022-11-23T00:21:23;98187.28;;;1.86;82.23
75045;BME280;63614;56.026;35.960;2022-11-23T00:23:49;98197.50;;;2.03;81.93
75045;BME280;63614;56.026;35.960;2022-11-23T00:26:16;98196.56;;;2.04;81.59
75045;BME280;63614;56.026;35.960;2022-11-23T00:28:43;98195.47;;;1.98;81.54
75045;BME280;63614;56.026;35.960;2022-11-23T00:31:10;98194.78;;;2.04;81.50
75045;BME280;63614;56.026;35.960;2022-11-23T00:33:36;98197.19;;;2.06;81.32
75045;BME280;63614;56.026;35.960;2022-11-23T00:36:06;98185.69;;;1.93;81.74
75045;BME280;63614;56.026;35.960;2022-11-23T00:38:32;98185.19;;;2.06;81.33
75045;BME280;63614;56.026;35.960;2022-11-23T00:40:59;98180.69;;;2.08;80.98
75045;BME280;63614;56.026;35.960;2022-11-23T00:43:26;98182.63;;;2.06;81.04
75045;BME280;63614;56.026;35.960;2022-11-23T00:46:07;98183.56;;;2.05;81.36
75045;BME280;63614;56.026;35.960;2022-11-23T00:48:34;98185.31;;;2.13;81.35
75045;BME280;63614;56.026;35.960;2022-11-23T00:51:06;98186.13;;;2.13;81.44
75045;BME280;63614;56.026;35.960;2022-11-23T00:53:33;98189.50;;;2.06;81.53
75045;BME280;63614;56.026;35.960;2022-11-23T00:56:00;98195.44;;;2.06;81.63
75045;BME280;63614;56.026;35.960;2022-11-23T00:58:26;98185.47;;;2.20;81.27
75045;BME280;63614;56.026;35.960;2022-11-23T01:01:00;98189.81;;;2.19;80.82
75045;BME280;63614;56.026;35.960;2022-11-23T01:03:27;98177.97;;;2.10;80.96
75045;BME280;63614;56.026;35.960;2022-11-23T01:05:54;98176.50;;;2.07;81.44
75045;BME280;63614;56.026;35.960;2022-11-23T01:08:20;98177.66;;;2.05;81.33
75045;BME280;63614;56.026;35.960;2022-11-23T01:10:46;98172.34;;;2.06;81.40
75045;BME280;63614;56.026;35.960;2022-11-23T01:13:11;98183.88;;;2.10;81.13
75045;BME280;63614;56.026;35.960;2022-11-23T01:15:37;98189.03;;;1.94;81.66
75045;BME280;63614;56.026;35.960;2022-11-23T01:18:03;98195.28;;;1.91;81.55
75045;BME280;63614;56.026;35.960;2022-11-23T01:20:30;98181.03;;;1.64;82.54
75045;BME280;63614;56.026;35.960;2022-11-23T01:22:56;98185.03;;;1.83;82.12
75045;BME280;63614;56.026;35.960;2022-11-23T01:25:22;98184.38;;;1.89;81.72
75045;BME280;63614;56.026;35.960;2022-11-23T01:27:48;98187.59;;;2.08;81.70
75045;BME280;63614;56.026;35.960;2022-11-23T01:30:14;98190.94;;;2.08;80.84
75045;BME280;63614;56.026;35.960;2022-11-23T01:32:40;98193.53;;;1.84;81.69
75045;BME280;63614;56.026;35.960;2022-11-23T01:35:06;98197.19;;;1.97;81.20
75045;BME280;63614;56.026;35.960;2022-11-23T01:37:32;98201.69;;;2.04;81.08
75045;BME280;63614;56.026;35.960;2022-11-23T01:39:58;98204.25;;;2.04;80.85
75045;BME280;63614;56.026;35.960;2022-11-23T01:42:59;98194.63;;;1.97;81.31
75045;BME280;63614;56.026;35.960;2022-11-23T01:45:35;98198.00;;;2.06;80.86
75045;BME280;63614;56.026;35.960;2022-11-23T01:48:05;98196.56;;;2.04;81.03
75045;BME280;63614;56.026;35.960;2022-11-23T01:50:33;98189.34;;;2.15;80.62
75045;BME280;63614;56.026;35.960;2022-11-23T01:52:59;98194.47;;;2.24;80.27
75045;BME280;63614;56.026;35.960;2022-11-23T01:55:25;98198.47;;;2.18;80.19
75045;BME280;63614;56.026;35.960;2022-11-23T01:57:52;98181.66;;;2.15;80.16
75045;BME280;63614;56.026;35.960;2022-11-23T02:00:18;98194.13;;;2.18;80.44
75045;BME280;63614;56.026;35.960;2022-11-23T02:02:51;98192.53;;;2.17;80.47
75045;BME280;63614;56.026;35.960;2022-11-23T02:05:22;98207.09;;;2.17;80.29
75045;BME280;63614;56.026;35.960;2022-11-23T02:07:50;98209.34;;;2.20;80.29
75045;BME280;63614;56.026;35.960;2022-11-23T02:10:17;98210.97;;;2.13;80.37
75045;BME280;63614;56.026;35.960;2022-11-23T02:12:43;98213.72;;;2.03;80.53
75045;BME280;63614;56.026;35.960;2022-11-23T02:15:32;98223.50;;;1.99;80.84
75045;BME280;63614;56.026;35.960;2022-11-23T02:18:02;98231.50;;;2.05;80.65
75045;BME280;63614;56.026;35.960;2022-11-23T02:20:29;98229.72;;;2.05;80.36
75045;BME280;63614;56.026;35.960;2022-11-23T02:23:00;98232.94;;;2.07;80.62
75045;BME280;63614;56.026;35.960;2022-11-23T02:26:02;98233.41;;;2.03;80.39
75045;BME280;63614;56.026;35.960;2022-11-23T02:28:28;98233.59;;;2.09;80.34
75045;BME280;63614;56.026;35.960;2022-11-23T02:30:58;98235.19;;;2.02;80.46
75045;BME280;63614;56.026;35.960;2022-11-23T02:33:25;98240.31;;;2.02;80.75
75045;BME280;63614;56.026;35.960;2022-11-23T02:35:59;98235.19;;;2.02;80.68
75045;BME280;63614;56.026;35.960;2022-11-23T02:38:30;98223.97;;;2.03;80.48
75045;BME280;63614;56.026;35.960;2022-11-23T02:40:58;98233.25;;;1.96;80.57
75045;BME280;63614;56.026;35.960;2022-11-23T02:43:24;98226.88;;;2.00;80.51
75045;BME280;63614;56.026;35.960;2022-11-23T02:45:58;98224.28;;;2.00;80.22
75045;BME280;63614;56.026;35.960;2022-11-23T02:48:26;98228.47;;;2.01;80.48
75045;BME280;63614;56.026;35.960;2022-11-23T02:50:53;98221.25;;;2.13;79.93
75045;BME280;63614;56.026;35.960;2022-11-23T02:53:19;98219.78;;;2.10;80.22
75045;BME280;63614;56.026;35.960;2022-11-23T02:55:45;98229.56;;;2.07;80.50
75045;BME280;63614;56.026;35.960;2022-11-23T02:58:11;98217.72;;;1.97;80.42
75045;BME280;63614;56.026;35.960;2022-11-23T03:00:37;98230.06;;;2.02;80.53
75045;BME280;63614;56.026;35.960;2022-11-23T03:03:04;98226.22;;;1.98;80.41
75045;BME280;63614;56.026;35.960;2022-11-23T03:05:32;98236.31;;;1.83;81.31
75045;BME280;63614;56.026;35.960;2022-11-23T03:08:03;98231.66;;;1.87;81.17
75045;BME280;63614;56.026;35.960;2022-11-23T03:10:30;98231.53;;;1.96;80.63
75045;BME280;63614;56.026;35.960;2022-11-23T03:12:56;98237.28;;;2.07;80.34
75045;BME280;63614;56.026;35.960;2022-11-23T03:15:23;98226.22;;;2.06;80.21
75045;BME280;63614;56.026;35.960;2022-11-23T03:17:49;98222.66;;;2.07;80.16
75045;BME280;63614;56.026;35.960;2022-11-23T03:20:15;98217.56;;;1.99;80.59
75045;BME280;63614;56.026;35.960;2022-11-23T03:22:44;98219.50;;;1.97;80.42
75045;BME280;63614;56.026;35.960;2022-11-23T03:25:12;98230.69;;;2.04;80.02
75045;BME280;63614;56.026;35.960;2022-11-23T03:27:40;98220.59;;;2.03;80.04
75045;BME280;63614;56.026;35.960;2022-11-23T03:30:07;98220.44;;;1.96;80.15
75045;BME280;63614;56.026;35.960;2022-11-23T03:32:35;98222.22;;;1.95;80.61
75045;BME280;63614;56.026;35.960;2022-11-23T03:35:02;98223.97;;;1.95;80.81
75045;BME280;63614;56.026;35.960;2022-11-23T03:37:29;98226.06;;;1.99;80.77
75045;BME280;63614;56.026;35.960;2022-11-23T03:39:56;98217.41;;;2.00;80.59
75045;BME280;63614;56.026;35.960;2022-11-23T03:42:40;98225.09;;;1.92;80.67
75045;BME280;63614;56.026;35.960;2022-11-23T03:45:07;98231.34;;;1.98;80.71
75045;BME280;63614;56.026;35.960;2022-11-23T03:47:34;98232.31;;;1.97;80.63
75045;BME280;63614;56.026;35.960;2022-11-23T03:50:00;98232.31;;;1.97;80.74
75045;BME280;63614;56.026;35.960;2022-11-23T03:52:29;98228.78;;;1.98;80.33
75045;BME280;63614;56.026;35.960;2022-11-23T03:54:54;98232.94;;;2.07;80.19
75045;BME280;63614;56.026;35.960;2022-11-23T03:57:20;98232.31;;;1.97;80.49
75045;BME280;63614;56.026;35.960;2022-11-23T03:59:46;98234.88;;;2.05;80.38
75045;BME280;63614;56.026;35.960;2022-11-23T04:02:13;98240.78;;;1.97;80.66
75045;BME280;63614;56.026;35.960;2022-11-23T04:04:46;98236.31;;;1.99;80.57
75045;BME280;63614;56.026;35.960;2022-11-23T04:07:41;98239.38;;;2.03;80.63
75045;BME280;63614;56.026;35.960;2022-11-23T04:10:08;98235.81;;;2.04;80.42
75045;BME280;63614;56.026;35.960;2022-11-23T04:13:11;98234.06;;;2.05;80.62
75045;BME280;63614;56.026;35.960;2022-11-23T04:15:37;98241.44;;;2.08;80.41
75045;BME280;63614;56.026;35.960;2022-11-23T04:18:03;98244.19;;;1.98;80.98
75045;BME280;63614;56.026;35.960;2022-11-23T04:20:29;98232.94;;;2.07;80.58
75045;BME280;63614;56.026;35.960;2022-11-23T04:22:55;98242.72;;;2.04;80.56
75045;BME280;63614;56.026;35.960;2022-11-23T04:25:23;98238.22;;;2.06;80.44
75045;BME280;63614;56.026;35.960;2022-11-23T04:27:50;98235.03;;;2.04;80.49
75045;BME280;63614;56.026;35.960;2022-11-23T04:30:17;98244.50;;;2.03;80.41
75045;BME280;63614;56.026;35.960;2022-11-23T04:32:44;98232.16;;;1.90;81.19
75045;BME280;63614;56.026;35.960;2022-11-23T04:35:11;98239.69;;;2.00;80.79
75045;BME280;63614;56.026;35.960;2022-11-23T04:37:39;98243.69;;;1.94;80.71
75045;BME280;63614;56.026;35.960;2022-11-23T04:40:05;98240.16;;;1.95;80.77
75045;BME280;63614;56.026;35.960;2022-11-23T04:42:49;98243.69;;;1.94;80.62
75045;BME280;63614;56.026;35.960;2022-11-23T04:45:16;98233.75;;;1.83;81.03
75045;BME280;63614;56.026;35.960;2022-11-23T04:47:42;98238.72;;;1.93;81.10
75045;BME280;63614;56.026;35.960;2022-11-23T04:50:12;98238.72;;;1.85;80.93
75045;BME280;63614;56.026;35.960;2022-11-23T04:52:38;98238.56;;;1.78;81.78
75045;BME280;63614;56.026;35.960;2022-11-23T04:55:10;98239.34;;;1.87;81.32
75045;BME280;63614;56.026;35.960;2022-11-23T04:57:44;98238.56;;;1.86;80.96
75045;BME280;63614;56.026;35.960;2022-11-23T05:00:11;98242.41;;;1.98;80.96
75045;BME280;63614;56.026;35.960;2022-11-23T05:02:37;98241.78;;;2.05;80.58
75045;BME280;63614;56.026;35.960;2022-11-23T05:05:24;98248.81;;;2.03;80.66
75045;BME280;63614;56.026;35.960;2022-11-23T05:07:50;98251.88;;;2.06;80.95
75045;BME280;63614;56.026;35.960;2022-11-23T05:10:18;98257.16;;;2.05;80.37
75045;BME280;63614;56.026;35.960;2022-11-23T05:12:46;98252.00;;;1.88;81.10
75045;BME280;63614;56.026;35.960;2022-11-23T05:15:12;98257.13;;;1.72;81.85
75045;BME280;63614;56.026;35.960;2022-11-23T05:17:39;98261.16;;;1.83;81.55
75045;BME280;63614;56.026;35.960;2022-11-23T05:20:11;98264.66;;;1.81;81.63
75045;BME280;63614;56.026;35.960;2022-11-23T05:22:42;98269.47;;;1.76;81.84
75045;BME280;63614;56.026;35.960;2022-11-23T05:25:13;98264.81;;;1.80;81.53
75045;BME280;63614;56.026;35.960;2022-11-23T05:27:39;98263.88;;;1.81;81.40
75045;BME280;63614;56.026;35.960;2022-11-23T05:30:06;98259.84;;;1.87;81.21
75045;BME280;63614;56.026;35.960;2022-11-23T05:32:32;98267.41;;;1.96;81.22
75045;BME280;63614;56.026;35.960;2022-11-23T05:35:00;98263.72;;;1.99;80.79
75045;BME280;63614;56.026;35.960;2022-11-23T05:37:32;98262.44;;;1.95;80.98
75045;BME280;63614;56.026;35.960;2022-11-23T05:40:01;98268.22;;;1.97;80.79
75045;BME280;63614;56.026;35.960;2022-11-23T05:42:30;98265.81;;;1.95;81.11
75045;BME280;63614;56.026;35.960;2022-11-23T05:45:03;98265.50;;;1.98;81.03
75045;BME280;63614;56.026;35.960;2022-11-23T05:47:37;98273.97;;;1.99;80.99
75045;BME280;63614;56.026;35.960;2022-11-23T05:50:07;98280.09;;;2.06;80.76
75045;BME280;63614;56.026;35.960;2022-11-23T05:52:34;98280.88;;;2.07;80.66
75045;BME280;63614;56.026;35.960;2022-11-23T05:55:01;98276.69;;;1.97;80.78
75045;BME280;63614;56.026;35.960;2022-11-23T05:57:29;98277.53;;;1.98;80.86
75045;BME280;63614;56.026;35.960;2022-11-23T05:59:54;98284.72;;;1.94;80.79
75045;BME280;63614;56.026;35.960;2022-11-23T06:02:29;98278.31;;;1.98;81.15
75045;BME280;63614;56.026;35.960;2022-11-23T06:04:59;98281.66;;;1.99;80.76
75045;BME280;63614;56.026;35.960;2022-11-23T06:07:35;98283.59;;;1.97;81.06
75045;BME280;63614;56.026;35.960;2022-11-23T06:10:07;98281.50;;;2.00;80.69
75045;BME280;63614;56.026;35.960;2022-11-23T06:12:37;98280.41;;;2.03;80.73
75045;BME280;63614;56.026;35.960;2022-11-23T06:15:07;98278.78;;;2.10;80.57
75045;BME280;63614;56.026;35.960;2022-11-23T06:17:34;98282.97;;;2.03;80.65
75045;BME280;63614;56.026;35.960;2022-11-23T06:20:07;98281.50;;;2.00;80.75
75045;BME280;63614;56.026;35.960;2022-11-23T06:22:36;98273.66;;;1.94;81.19
75045;BME280;63614;56.026;35.960;2022-11-23T06:25:05;98282.31;;;1.93;81.03
75045;BME280;63614;56.026;35.960;2022-11-23T06:27:59;98280.09;;;1.98;81.02
75045;BME280;63614;56.026;35.960;2022-11-23T06:30:32;98282.66;;;2.06;81.08
75045;BME280;63614;56.026;35.960;2022-11-23T06:33:04;98289.03;;;2.02;80.59
75045;BME280;63614;56.026;35.960;2022-11-23T06:35:37;98288.56;;;1.98;80.73
75045;BME280;63614;56.026;35.960;2022-11-23T06:38:03;98289.38;;;1.99;80.93
75045;BME280;63614;56.026;35.960;2022-11-23T06:40:29;98296.41;;;1.97;80.75
75045;BME280;63614;56.026;35.960;2022-11-23T06:43:00;98291.59;;;1.94;80.62
75045;BME280;63614;56.026;35.960;2022-11-23T06:45:46;98292.09;;;1.89;80.98
75045;BME280;63614;56.026;35.960;2022-11-23T06:48:13;98294.78;;;1.79;81.31
75045;BME280;63614;56.026;35.960;2022-11-23T06:50:44;98293.69;;;1.90;81.01
75045;BME280;63614;56.026;35.960;2022-11-23T06:53:10;98297.53;;;1.94;80.50
75045;BME280;63614;56.026;35.960;2022-11-23T06:55:45;98301.22;;;1.92;80.87
75045;BME280;63614;56.026;35.960;2022-11-23T06:58:14;98298.81;;;1.98;80.37
75045;BME280;63614;56.026;35.960;2022-11-23T07:00:40;98300.44;;;2.08;80.53
75045;BME280;63614;56.026;35.960;2022-11-23T07:03:22;98307.66;;;2.12;80.02
75045;BME280;63614;56.026;35.960;2022-11-23T07:06:05;98307.81;;;2.19;79.40
75045;BME280;63614;56.026;35.960;2022-11-23T07:08:34;98307.50;;;2.14;80.05
75045;BME280;63614;56.026;35.960;2022-11-23T07:11:11;98311.81;;;2.22;79.66
75045;BME280;63614;56.026;35.960;2022-11-23T07:13:38;98312.16;;;2.27;79.85
75045;BME280;63614;56.026;35.960;2022-11-23T07:16:04;98316.81;;;2.31;79.17
75045;BME280;63614;56.026;35.960;2022-11-23T07:18:30;98311.31;;;2.34;79.21
75045;BME280;63614;56.026;35.960;2022-11-23T07:20:59;98314.72;;;2.43;78.83
75045;BME280;63614;56.026;35.960;2022-11-23T07:23:25;98321.59;;;2.51;78.47
75045;BME280;63614;56.026;35.960;2022-11-23T07:25:51;98308.59;;;2.52;78.60
75045;BME280;63614;56.026;35.960;2022-11-23T07:28:18;98317.44;;;2.42;78.77
75045;BME280;63614;56.026;35.960;2022-11-23T07:30:44;98315.66;;;2.42;78.69
75045;BME280;63614;56.026;35.960;2022-11-23T07:33:11;98316.94;;;2.46;78.78
75045;BME280;63614;56.026;35.960;2022-11-23T07:35:39;98311.34;;;2.51;78.63
75045;BME280;63614;56.026;35.960;2022-11-23T07:38:06;98314.56;;;2.28;78.75
75045;BME280;63614;56.026;35.960;2022-11-23T07:40:37;98318.72;;;2.29;78.99
75045;BME280;63614;56.026;35.960;2022-11-23T07:43:04;98322.72;;;2.32;79.31
75045;BME280;63614;56.026;35.960;2022-11-23T07:45:31;98329.28;;;2.34;79.26
75045;BME280;63614;56.026;35.960;2022-11-23T07:48:06;98330.75;;;2.45;78.61
75045;BME280;63614;56.026;35.960;2022-11-23T07:50:34;98329.78;;;2.46;78.22
75045;BME280;63614;56.026;35.960;2022-11-23T07:53:00;98337.47;;;2.46;78.67
75045;BME280;63614;56.026;35.960;2022-11-23T07:55:26;98346.13;;;2.37;78.42
75045;BME280;63614;56.026;35.960;2022-11-23T07:57:53;98342.78;;;2.28;78.52
75045;BME280;63614;56.026;35.960;2022-11-23T08:00:20;98342.13;;;2.34;78.57
75045;BME280;63614;56.026;35.960;2022-11-23T08:02:47;98339.56;;;2.34;78.57
75045;BME280;63614;56.026;35.960;2022-11-23T08:05:13;98343.72;;;2.44;77.96
75045;BME280;63614;56.026;35.960;2022-11-23T08:07:39;98350.78;;;2.42;77.75
75045;BME280;63614;56.026;35.960;2022-11-23T08:10:06;98343.72;;;2.44;77.79
75045;BME280;63614;56.026;35.960;2022-11-23T08:12:31;98345.19;;;2.46;77.84
75045;BME280;63614;56.026;35.960;2022-11-23T08:14:57;98346.13;;;2.45;78.19
75045;BME280;63614;56.026;35.960;2022-11-23T08:17:23;98344.88;;;2.49;77.68
75045;BME280;63614;56.026;35.960;2022-11-23T08:19:49;98345.34;;;2.45;78.21
75045;BME280;63614;56.026;35.960;2022-11-23T08:22:15;98340.84;;;2.47;77.98
75045;BME280;63614;56.026;35.960;2022-11-23T08:24:41;98349.50;;;2.38;77.91
75045;BME280;63614;56.026;35.960;2022-11-23T08:27:07;98341.00;;;2.37;78.39
75045;BME280;63614;56.026;35.960;2022-11-23T08:29:33;98339.91;;;2.31;78.70
75045;BME280;63614;56.026;35.960;2022-11-23T08:31:59;98345.00;;;2.23;78.62
75045;BME280;63614;56.026;35.960;2022-11-23T08:34:25;98341.97;;;2.28;78.91
75045;BME280;63614;56.026;35.960;2022-11-23T08:36:50;98346.16;;;2.21;78.82
75045;BME280;63614;56.026;35.960;2022-11-23T08:39:16;98347.25;;;2.26;78.57
75045;BME280;63614;56.026;35.960;2022-11-23T08:41:44;98352.72;;;2.31;78.75
75045;BME280;63614;56.026;35.960;2022-11-23T08:44:10;98357.88;;;2.31;78.90
75045;BME280;63614;56.026;35.960;2022-11-23T08:46:37;98357.19;;;2.38;78.40
75045;BME280;63614;56.026;35.960;2022-11-23T08:49:04;98360.25;;;2.33;78.65
75045;BME280;63614;56.026;35.960;2022-11-23T08:51:30;98358.81;;;2.47;78.31
75045;BME280;63614;56.026;35.960;2022-11-23T08:53:56;98364.25;;;2.52;78.02
75045;BME280;63614;56.026;35.960;2022-11-23T08:56:22;98366.03;;;2.60;77.69
75045;BME280;63614;56.026;35.960;2022-11-23T08:58:48;98363.75;;;2.65;77.55
75045;BME280;63614;56.026;35.960;2022-11-23T09:01:16;98358.81;;;2.63;77.71
75045;BME280;63614;56.026;35.960;2022-11-23T09:03:42;98362.34;;;2.62;77.37
75045;BME280;63614;56.026;35.960;2022-11-23T09:06:11;98349.81;;;2.59;77.61
75045;BME280;63614;56.026;35.960;2022-11-23T09:08:37;98354.66;;;2.46;78.01
75045;BME280;63614;56.026;35.960;2022-11-23T09:11:05;98358.81;;;2.55;77.66
75045;BME280;63614;56.026;35.960;2022-11-23T09:13:31;98364.75;;;2.47;77.90
75045;BME280;63614;56.026;35.960;2022-11-23T09:16:00;98366.03;;;2.35;78.57
75045;BME280;63614;56.026;35.960;2022-11-23T09:18:27;98362.84;;;2.41;78.45
75045;BME280;63614;56.026;35.960;2022-11-23T09:20:55;98350.16;;;2.40;78.30
75045;BME280;63614;56.026;35.960;2022-11-23T09:23:22;98359.94;;;2.28;78.62
75045;BME280;63614;56.026;35.960;2022-11-23T09:25:48;98361.69;;;2.35;78.84
75045;BME280;63614;56.026;35.960;2022-11-23T09:28:15;98360.25;;;2.16;78.64
75045;BME280;63614;56.026;35.960;2022-11-23T09:30:42;98363.63;;;2.33;78.91
75045;BME280;63614;56.026;35.960;2022-11-23T09:33:08;98362.19;;;2.31;78.83
75045;BME280;63614;56.026;35.960;2022-11-23T09:35:34;98369.56;;;2.26;78.93
75045;BME280;63614;56.026;35.960;2022-11-23T09:38:00;98368.91;;;2.40;78.50
75045;BME280;63614;56.026;35.960;2022-11-23T09:40:30;98371.63;;;2.22;79.09
75045;BME280;63614;56.026;35.960;2022-11-23T09:51:10;98368.91;;;2.15;79.36
75045;BME280;63614;56.026;35.960;2022-11-23T09:53:55;98373.69;;;2.10;79.65
75045;BME280;63614;56.026;35.960;2022-11-23T09:56:35;98370.81;;;2.22;79.74
75045;BME280;63614;56.026;35.960;2022-11-23T09:59:12;98374.84;;;2.16;80.17
75045;BME280;63614;56.026;35.960;2022-11-23T10:01:40;98367.31;;;2.23;79.94
75045;BME280;63614;56.026;35.960;2022-11-23T10:04:14;98368.59;;;2.27;79.45
75045;BME280;63614;56.026;35.960;2022-11-23T10:06:43;98374.06;;;2.32;79.52
75045;BME280;63614;56.026;35.960;2022-11-23T10:09:46;98378.03;;;2.26;79.46
75045;BME280;63614;56.026;35.960;2022-11-23T10:23:38;98386.06;;;2.23;79.21
75045;BME280;63614;56.026;35.960;2022-11-23T10:26:14;98394.06;;;2.12;78.92
75045;BME280;63614;56.026;35.960;2022-11-23T10:28:41;98391.66;;;2.18;79.05
75045;BME280;63614;56.026;35.960;2022-11-23T10:31:21;98385.41;;;2.13;79.12
75045;BME280;63614;56.026;35.960;2022-11-23T10:36:35;98390.72;;;2.20;79.50
75045;BME280;63614;56.026;35.960;2022-11-23T10:39:23;98390.88;;;2.18;80.08
75045;BME280;63614;56.026;35.960;2022-11-23T10:41:53;98395.19;;;2.09;80.14
75045;BME280;63614;56.026;35.960;2022-11-23T10:44:35;98405.59;;;1.99;80.09
75045;BME280;63614;56.026;35.960;2022-11-23T10:47:03;98400.63;;;2.06;79.48
75045;BME280;63614;56.026;35.960;2022-11-23T10:49:34;98397.91;;;1.99;79.72
75045;BME280;63614;56.026;35.960;2022-11-23T10:52:03;98395.50;;;1.98;79.85
75045;BME280;63614;56.026;35.960;2022-11-23T10:54:33;98388.91;;;2.04;79.61
75045;BME280;63614;56.026;35.960;2022-11-23T10:57:02;98399.66;;;2.07;79.91
75045;BME280;63614;56.026;35.960;2022-11-23T10:59:30;98406.22;;;2.02;80.25
75045;BME280;63614;56.026;35.960;2022-11-23T11:02:17;98397.25;;;2.06;79.98
75045;BME280;63614;56.026;35.960;2022-11-23T11:04:44;98402.38;;;1.97;79.66
75045;BME280;63614;56.026;35.960;2022-11-23T11:07:28;98409.25;;;1.89;79.67
75045;BME280;63614;56.026;35.960;2022-11-23T11:10:00;98413.56;;;1.88;79.48
75045;BME280;63614;56.026;35.960;2022-11-23T11:12:28;98410.00;;;1.81;79.84
75045;BME280;63614;56.026;35.960;2022-11-23T11:17:35;98402.53;;;1.96;79.72
75045;BME280;63614;56.026;35.960;2022-11-23T11:22:47;98414.06;;;1.92;79.28
75045;BME280;63614;56.026;35.960;2022-11-23T11:25:27;98422.91;;;2.06;79.62
75045;BME280;63614;56.026;35.960;2022-11-23T11:27:55;98423.72;;;2.06;78.74
75045;BME280;63614;56.026;35.960;2022-11-23T11:30:23;98428.06;;;2.14;78.38
75045;BME280;63614;56.026;35.960;2022-11-23T11:35:34;98428.22;;;2.12;78.63
75045;BME280;63614;56.026;35.960;2022-11-23T11:38:07;98425.81;;;2.11;78.39
75045;BME280;63614;56.026;35.960;2022-11-23T11:43:13;98414.28;;;2.23;78.57
75045;BME280;63614;56.026;35.960;2022-11-23T11:45:46;98417.66;;;2.24;78.58
75045;BME280;63614;56.026;35.960;2022-11-23T11:48:16;98428.03;;;2.06;78.75
75045;BME280;63614;56.026;35.960;2022-11-23T11:51:08;98429.50;;;2.08;79.03
75045;BME280;63614;56.026;35.960;2022-11-23T11:58:57;98434.31;;;2.11;78.95
75045;BME280;63614;56.026;35.960;2022-11-23T12:01:35;98436.06;;;2.11;77.76
75045;BME280;63614;56.026;35.960;2022-11-23T12:04:17;98441.38;;;2.09;78.19
75045;BME280;63614;56.026;35.960;2022-11-23T12:06:53;98443.94;;;2.17;78.23
75045;BME280;63614;56.026;35.960;2022-11-23T12:09:25;98447.28;;;2.02;78.84
75045;BME280;63614;56.026;35.960;2022-11-23T12:11:57;98445.50;;;2.02;79.10
75045;BME280;63614;56.026;35.960;2022-11-23T12:14:25;98454.81;;;2.11;78.88
75045;BME280;63614;56.026;35.960;2022-11-23T12:19:29;98460.28;;;2.16;78.78
75045;BME280;63614;56.026;35.960;2022-11-23T12:49:45;98490.72;;;2.03;79.58
75045;BME280;63614;56.026;35.960;2022-11-23T12:55:39;98497.03;;;1.83;80.10
75045;BME280;63614;56.026;35.960;2022-11-23T13:00:52;98496.28;;;1.64;80.62
75045;BME280;63614;56.026;35.960;2022-11-23T13:06:30;98499.13;;;1.53;81.01
75045;BME280;63614;56.026;35.960;2022-11-23T13:09:26;98497.81;;;1.49;81.82
75045;BME280;63614;56.026;35.960;2022-11-23T13:23:07;98517.78;;;1.19;81.43
75045;BME280;63614;56.026;35.960;2022-11-23T13:25:33;98524.25;;;1.23;81.65
75045;BME280;63614;56.026;35.960;2022-11-23T13:28:02;98517.88;;;1.09;82.21
75045;BME280;63614;56.026;35.960;2022-11-23T13:30:36;98522.56;;;1.14;82.38
75045;BME280;63614;56.026;35.960;2022-11-23T13:40:26;98546.25;;;1.16;81.57
75045;BME280;63614;56.026;35.960;2022-11-23T13:42:56;98538.38;;;1.09;81.78
75045;BME280;63614;56.026;35.960;2022-11-23T13:45:28;98541.81;;;1.00;82.12
75045;BME280;63614;56.026;35.960;2022-11-23T13:48:03;98546.13;;;0.99;81.61
75045;BME280;63614;56.026;35.960;2022-11-23T13:50:31;98538.94;;;1.03;81.88
75045;BME280;63614;56.026;35.960;2022-11-23T13:52:58;98545.75;;;0.94;82.06
75045;BME280;63614;56.026;35.960;2022-11-23T13:55:36;98548.09;;;0.87;82.00
75045;BME280;63614;56.026;35.960;2022-11-23T14:00:53;98545.97;;;0.83;81.90
75045;BME280;63614;56.026;35.960;2022-11-23T14:14:49;98563.66;;;0.58;82.31
75045;BME280;63614;56.026;35.960;2022-11-23T14:28:37;98573.31;;;0.82;81.63
75045;BME280;63614;56.026;35.960;2022-11-23T14:32:15;98576.31;;;0.78;81.66
75045;BME280;63614;56.026;35.960;2022-11-23T14:34:35;98574.63;;;0.68;81.69
75045;BME280;63614;56.026;35.960;2022-11-23T14:37:48;98578.16;;;0.67;82.06
75045;BME280;63614;56.026;35.960;2022-11-23T14:40:28;98580.13;;;0.74;81.72
75045;BME280;63614;56.026;35.960;2022-11-23T14:42:56;98595.34;;;0.75;81.10
75045;BME280;63614;56.026;35.960;2022-11-23T14:45:27;98595.84;;;0.79;80.82
75045;BME280;63614;56.026;35.960;2022-11-23T14:47:53;98598.75;;;0.66;81.30
75045;BME280;63614;56.026;35.960;2022-11-23T14:50:27;98604.34;;;0.79;80.98
75045;BME280;63614;56.026;35.960;2022-11-23T14:52:56;98604.97;;;0.81;80.85
75045;BME280;63614;56.026;35.960;2022-11-23T14:55:26;98611.72;;;0.82;81.28
75045;BME280;63614;56.026;35.960;2022-11-23T14:58:01;98602.13;;;0.66;81.82
75045;BME280;63614;56.026;35.960;2022-11-23T15:00:35;98610.41;;;0.50;82.08
75045;BME280;63614;56.026;35.960;2022-11-23T15:03:15;98611.81;;;0.45;82.17
75045;BME280;63614;56.026;35.960;2022-11-23T15:05:49;98617.72;;;0.45;82.69
75045;BME280;63614;56.026;35.960;2022-11-23T15:08:26;98619.47;;;0.45;82.64
75045;BME280;63614;56.026;35.960;2022-11-23T15:11:13;98613.44;;;0.36;82.56
75045;BME280;63614;56.026;35.960;2022-11-23T15:13:52;98619.25;;;0.28;82.72
75045;BME280;63614;56.026;35.960;2022-11-23T15:16:19;98621.81;;;0.28;82.84
75045;BME280;63614;56.026;35.960;2022-11-23T15:18:47;98619.81;;;0.22;82.89